Kyokuhoumaru No.12 — JL5963 — position and weather

sailwx.info

Track history (hours):
 
Tides and Currents Weather Stations Pressure Air Temp Water Temp Dewpoint Dewpoint Depression Visibility Wind Speed Wind Dir Waves Ship Positions

Kyokuhoumaru No.12

Last reported at 2015-May-19 09:11 UTC. Time now 2015-May-23 14:55 UTC.
Position N 35°06' E 139°39'.

Length 57 m.

Type: Tanker. MMSI: 431500879.

Date/timePositionNaut miles runAvg speedWind from/ knotsBaromVisibWave heightAir tempDewpointWater temp
2015-May-19 09:11N 35°06' E 139°39'5 8.2
2015-May-19 08:33N 35°10' E 139°44'10 7.3
2015-May-19 07:07N 35°20' E 139°42'5 8.4
2015-May-19 06:33N 35°25' E 139°43'9 8.1
2015-May-19 05:28N 35°30' E 139°52'8 8.1
2015-May-19 04:32N 35°37' E 139°58'5 4.6
2015-May-19 03:33N 35°41' E 139°57'0 0.0
2015-May-19 02:27N 35°41' E 139°57'0 0.0
2015-May-19 01:33N 35°41' E 139°57'0 0.0
2015-May-19 00:33N 35°41' E 139°57'0 0.0
2015-May-18 23:30N 35°41' E 139°57'4 4.6
2015-May-18 22:33N 35°37' E 139°56'2 1.8
2015-May-18 21:32N 35°36' E 139°54'0 0.1
2015-May-18 20:32N 35°36' E 139°54'0 0.0
2015-May-18 19:26N 35°36' E 139°54'0 0.1
2015-May-18 18:29N 35°36' E 139°54'0 0.0
2015-May-18 17:32N 35°36' E 139°54'0 0.0
2015-May-18 16:29N 35°36' E 139°54'0 0.0
2015-May-18 15:26N 35°36' E 139°54'0 0.0
2015-May-18 14:26N 35°36' E 139°54'0 0.1
2015-May-18 13:32N 35°36' E 139°54'0 0.1
2015-May-18 12:32N 35°36' E 139°54'0 0.0
2015-May-18 11:29N 35°36' E 139°54'0 0.0
2015-May-18 10:32N 35°36' E 139°54'0 0.0
2015-May-18 09:32N 35°36' E 139°54'0 0.0
2015-May-18 08:29N 35°36' E 139°54'0 0.0
2015-May-18 07:32N 35°36' E 139°54'0 0.0
2015-May-18 06:29N 35°36' E 139°54'0 0.0
2015-May-18 05:23N 35°36' E 139°54'0 0.0
2015-May-18 04:32N 35°36' E 139°54'0 0.1
2015-May-18 03:32N 35°36' E 139°54'0 0.0
2015-May-18 02:29N 35°36' E 139°54'0 0.0
2015-May-18 01:32N 35°36' E 139°54'0 0.0
2015-May-18 00:32N 35°36' E 139°54'0 0.0
2015-May-17 23:32N 35°36' E 139°54'0 0.0
2015-May-17 22:29N 35°36' E 139°54'0 0.0
2015-May-17 21:32N 35°36' E 139°54'0 0.0
2015-May-17 20:32N 35°36' E 139°54'0 0.0
2015-May-17 19:29N 35°36' E 139°54'0 0.1
2015-May-17 18:29N 35°36' E 139°54'0 0.0
2015-May-17 17:32N 35°36' E 139°54'0 0.0
2015-May-17 16:29N 35°36' E 139°54'0 0.0
2015-May-17 15:29N 35°36' E 139°54'0 0.0
2015-May-17 14:29N 35°36' E 139°54'0 0.0
2015-May-17 13:29N 35°36' E 139°54'0 0.0
2015-May-17 12:32N 35°36' E 139°54'0 0.0
2015-May-17 11:32N 35°36' E 139°54'0 0.0
2015-May-17 10:29N 35°36' E 139°54'0 0.0
2015-May-17 09:26N 35°36' E 139°54'0 0.0
2015-May-17 08:20N 35°36' E 139°54'0 0.0
2015-May-17 07:32N 35°36' E 139°54'0 0.0
2015-May-17 06:32N 35°36' E 139°54'0 0.0
2015-May-17 05:23N 35°36' E 139°54'7 7.6
2015-May-17 04:31N 35°30' E 139°52'10 9.9
2015-May-17 03:33N 35°22' E 139°45'11 9.1
2015-May-17 02:20N 35°11' E 139°47'  
Track history (hours):
 
Tides and Currents Weather Stations Pressure Air Temp Water Temp Dewpoint Dewpoint Depression Visibility Wind Speed Wind Dir Waves Ship Positions

Kyokuhoumaru No.12

Last reported at 2015-May-19 09:11 UTC. Time now 2015-May-23 14:55 UTC.
Position N 35°06' E 139°39'.

Length 57 m.

Type: Tanker. MMSI: 431500879.

Date/timePositionNaut miles runAvg speedWind from/ knotsBaromVisibWave heightAir tempDewpointWater temp
2015-May-19 09:11N 35°06' E 139°39'5 8.2
2015-May-19 08:33N 35°10' E 139°44'10 7.3
2015-May-19 07:07N 35°20' E 139°42'5 8.4
2015-May-19 06:33N 35°25' E 139°43'9 8.1
2015-May-19 05:28N 35°30' E 139°52'8 8.1
2015-May-19 04:32N 35°37' E 139°58'5 4.6
2015-May-19 03:33N 35°41' E 139°57'0 0.0
2015-May-19 02:27N 35°41' E 139°57'0 0.0
2015-May-19 01:33N 35°41' E 139°57'0 0.0
2015-May-19 00:33N 35°41' E 139°57'0 0.0
2015-May-18 23:30N 35°41' E 139°57'4 4.6
2015-May-18 22:33N 35°37' E 139°56'2 1.8
2015-May-18 21:32N 35°36' E 139°54'0 0.1
2015-May-18 20:32N 35°36' E 139°54'0 0.0
2015-May-18 19:26N 35°36' E 139°54'0 0.1
2015-May-18 18:29N 35°36' E 139°54'0 0.0
2015-May-18 17:32N 35°36' E 139°54'0 0.0
2015-May-18 16:29N 35°36' E 139°54'0 0.0
2015-May-18 15:26N 35°36' E 139°54'0 0.0
2015-May-18 14:26N 35°36' E 139°54'0 0.1
2015-May-18 13:32N 35°36' E 139°54'0 0.1
2015-May-18 12:32N 35°36' E 139°54'0 0.0
2015-May-18 11:29N 35°36' E 139°54'0 0.0
2015-May-18 10:32N 35°36' E 139°54'0 0.0
2015-May-18 09:32N 35°36' E 139°54'0 0.0
2015-May-18 08:29N 35°36' E 139°54'0 0.0
2015-May-18 07:32N 35°36' E 139°54'0 0.0
2015-May-18 06:29N 35°36' E 139°54'0 0.0
2015-May-18 05:23N 35°36' E 139°54'0 0.0
2015-May-18 04:32N 35°36' E 139°54'0 0.1
2015-May-18 03:32N 35°36' E 139°54'0 0.0
2015-May-18 02:29N 35°36' E 139°54'0 0.0
2015-May-18 01:32N 35°36' E 139°54'0 0.0
2015-May-18 00:32N 35°36' E 139°54'0 0.0
2015-May-17 23:32N 35°36' E 139°54'0 0.0
2015-May-17 22:29N 35°36' E 139°54'0 0.0
2015-May-17 21:32N 35°36' E 139°54'0 0.0
2015-May-17 20:32N 35°36' E 139°54'0 0.0
2015-May-17 19:29N 35°36' E 139°54'0 0.1
2015-May-17 18:29N 35°36' E 139°54'0 0.0
2015-May-17 17:32N 35°36' E 139°54'0 0.0
2015-May-17 16:29N 35°36' E 139°54'0 0.0
2015-May-17 15:29N 35°36' E 139°54'0 0.0
2015-May-17 14:29N 35°36' E 139°54'0 0.0
2015-May-17 13:29N 35°36' E 139°54'0 0.0
2015-May-17 12:32N 35°36' E 139°54'0 0.0
2015-May-17 11:32N 35°36' E 139°54'0 0.0
2015-May-17 10:29N 35°36' E 139°54'0 0.0
2015-May-17 09:26N 35°36' E 139°54'0 0.0
2015-May-17 08:20N 35°36' E 139°54'0 0.0
2015-May-17 07:32N 35°36' E 139°54'0 0.0
2015-May-17 06:32N 35°36' E 139°54'0 0.0
2015-May-17 05:23N 35°36' E 139°54'7 7.6
2015-May-17 04:31N 35°30' E 139°52'10 9.9
2015-May-17 03:33N 35°22' E 139°45'11 9.1
2015-May-17 02:20N 35°11' E 139°47'  

Dump ship's entire track history